Time;durP1;ratioP1;P1;durP2;ratioP2;P2;SDS_P1;SDS_P2;PMS_P1;PMS_P2;Temp;Humidity;BMP_temperature;BMP_pressure;BME280_temperature;BME280_humidity;BME280_pressure;Samples;Min_cycle;Max_cycle;Signal;HPM_P1;HPM_P2
2022/09/15 00:03:21;;;;;;;8.30;4.97;;;;;;;-141.28;100.00;50340.03;5090969;28;20753;-78
2022/09/15 00:05:48;;;;;;;13.50;6.13;;;;;;;-141.28;100.00;50324.31;5081261;28;20277;-77
2022/09/15 00:08:15;;;;;;;17.77;6.40;;;;;;;-141.28;100.00;50312.53;5072077;28;20720;-77
2022/09/15 00:10:49;;;;;;;8.80;4.80;;;;;;;-141.28;100.00;50334.13;5071773;28;20325;-76
2022/09/15 00:13:17;;;;;;;10.43;4.00;;;;;;;-141.28;100.00;50287.03;5072004;28;20290;-78
2022/09/15 00:15:43;;;;;;;11.70;6.30;;;;;;;-141.28;100.00;50249.75;5084360;28;20207;-78
2022/09/15 00:18:13;;;;;;;5.73;3.70;;;;;;;-141.28;100.00;50271.31;5085584;28;20195;-77
2022/09/15 00:20:42;;;;;;;7.10;3.70;;;;;;;-141.28;100.00;50232.06;5109168;28;20196;-76
2022/09/15 00:23:09;;;;;;;5.10;3.50;;;;;;;-141.28;100.00;50232.06;5084138;28;20663;-75
2022/09/15 00:25:43;;;;;;;11.30;4.80;;;;;;;-141.28;100.00;50237.97;5078417;28;20191;-78
2022/09/15 00:28:10;;;;;;;11.20;5.40;;;;;;;-141.28;100.00;50224.22;5091920;28;20207;-80
2022/09/15 00:30:41;;;;;;;10.97;5.60;;;;;;;-141.28;100.00;50287.03;5084624;28;20200;-75
2022/09/15 00:33:08;;;;;;;12.23;4.93;;;;;;;-141.28;100.00;50294.88;5072211;28;20273;-73
2022/09/15 00:35:37;;;;;;;7.77;4.40;;;;;;;-141.28;100.00;50226.19;5080779;28;20231;-76
2022/09/15 00:38:06;;;;;;;11.70;5.67;;;;;;;-141.28;100.00;50287.03;5090115;28;20618;-75
2022/09/15 00:40:34;;;;;;;7.27;4.57;;;;;;;-141.28;100.00;50271.31;5073635;28;20200;-78
2022/09/15 00:43:01;;;;;;;11.87;5.37;;;;;;;-141.28;100.00;50239.94;5076304;28;20652;-76
2022/09/15 00:45:28;;;;;;;8.00;4.03;;;;;;;-141.28;100.00;50312.53;5092284;28;20212;-74
2022/09/15 00:47:55;;;;;;;15.27;4.37;;;;;;;-141.28;100.00;50342.00;5090722;28;20254;-77
2022/09/15 00:50:22;;;;;;;5.20;3.67;;;;;;;-141.28;100.00;50330.22;5072611;28;20200;-78
2022/09/15 00:52:52;;;;;;;6.63;4.00;;;;;;;-141.28;100.00;50361.63;5092295;28;20526;-78
2022/09/15 00:55:24;;;;;;;7.60;4.37;;;;;;;-141.28;100.00;50357.69;5101066;28;20231;-76
2022/09/15 00:57:57;;;;;;;9.17;4.17;;;;;;;-141.28;100.00;50371.44;5104665;28;20241;-76
2022/09/15 01:00:27;;;;;;;16.90;5.10;;;;;;;-141.28;100.00;50338.06;5091560;28;20207;-74
2022/09/15 01:02:55;;;;;;;7.70;3.63;;;;;;;-141.28;100.00;50361.63;5078875;28;20270;-78
2022/09/15 01:05:24;;;;;;;9.87;3.80;;;;;;;-141.28;100.00;50385.16;5091634;28;20300;-75
2022/09/15 01:07:57;;;;;;;5.80;3.73;;;;;;;-141.28;100.00;50365.53;5071516;28;20192;-77
2022/09/15 01:10:29;;;;;;;9.20;3.67;;;;;;;-141.28;100.00;50432.28;5096188;28;20200;-78
2022/09/15 01:12:59;;;;;;;7.90;3.10;;;;;;;-141.28;100.00;50428.34;5099234;28;20231;-78
2022/09/15 01:15:32;;;;;;;11.20;3.93;;;;;;;-141.28;100.00;50444.06;5095523;28;20280;-75
2022/09/15 01:18:10;;;;;;;9.67;3.17;;;;;;;-141.28;100.00;50447.97;5095670;28;20196;-75
2022/09/15 01:21:18;;;;;;;7.53;3.70;;;;;;;-141.28;100.00;50493.13;5075324;28;20654;-77
2022/09/15 01:24:29;;;;;;;4.33;2.60;;;;;;;-141.28;100.00;50542.19;5081083;28;20241;-78
2022/09/15 01:27:08;;;;;;;4.83;3.10;;;;;;;-141.28;100.00;50518.66;5091869;28;20206;-78
2022/09/15 01:29:56;;;;;;;5.73;3.10;;;;;;;-141.28;100.00;50495.09;5085259;28;20196;-75
2022/09/15 01:35:26;;;;;;;5.93;3.40;;;;;;;-141.28;100.00;50446.03;5079552;28;20702;-76
2022/09/15 01:38:00;;;;;;;8.60;3.23;;;;;;;-141.28;100.00;50440.13;5077560;28;20196;-77
2022/09/15 01:40:33;;;;;;;7.07;3.23;;;;;;;-141.28;100.00;50416.56;5089926;28;20681;-75
2022/09/15 01:43:01;;;;;;;4.17;2.97;;;;;;;-141.28;100.00;50373.38;5075325;28;20198;-76
2022/09/15 01:45:32;;;;;;;10.00;3.23;;;;;;;-141.28;100.00;50369.47;5083066;28;20685;-76
2022/09/15 01:48:05;;;;;;;6.60;3.10;;;;;;;-141.28;100.00;50369.47;5093183;28;20214;-76
2022/09/15 01:50:36;;;;;;;6.83;3.13;;;;;;;-141.28;100.00;50381.25;5085458;28;20202;-76
2022/09/15 01:53:08;;;;;;;9.87;3.43;;;;;;;-141.28;100.00;50373.38;5099123;28;20199;-76
2022/09/15 01:55:40;;;;;;;8.07;3.27;;;;;;;-141.28;100.00;50336.09;5114990;28;20223;-75
2022/09/15 01:58:08;;;;;;;9.87;3.47;;;;;;;-141.28;100.00;50322.34;5094567;28;20278;-77
2022/09/15 02:00:41;;;;;;;8.70;3.23;;;;;;;-141.28;100.00;50318.44;5107720;28;20621;-76
2022/09/15 02:03:16;;;;;;;8.13;3.47;;;;;;;-141.28;100.00;50326.28;5087791;28;20190;-75
2022/09/15 02:05:50;;;;;;;3.77;3.00;;;;;;;-141.28;100.00;50332.19;5113502;28;20230;-77
2022/09/15 02:08:24;;;;;;;6.03;3.30;;;;;;;-141.28;100.00;50322.34;5094258;28;20200;-75
2022/09/15 02:11:00;;;;;;;4.60;3.03;;;;;;;-141.28;100.00;50310.59;5077960;28;20268;-74
2022/09/15 02:13:38;;;;;;;7.83;2.80;;;;;;;-141.28;100.00;50271.31;5094048;28;20214;-75
2022/09/15 02:16:18;;;;;;;6.00;2.60;;;;;;;-141.28;100.00;50283.09;5081189;28;20223;-77
2022/09/15 02:18:54;;;;;;;5.43;2.90;;;;;;;-141.28;100.00;50287.03;5091024;28;20196;-78
2022/09/15 02:21:28;;;;;;;4.00;3.00;;;;;;;-141.28;100.00;50318.44;5086178;28;20622;-74
2022/09/15 02:24:02;;;;;;;5.13;2.90;;;;;;;-141.28;100.00;50294.88;5076114;28;20224;-74
2022/09/15 02:26:31;;;;;;;6.63;3.00;;;;;;;-141.28;100.00;50302.72;5088889;28;20195;-76
2022/09/15 02:29:00;;;;;;;9.50;3.33;;;;;;;-141.28;100.00;50306.66;5076588;28;20235;-77
2022/09/15 02:31:31;;;;;;;7.33;2.90;;;;;;;-141.28;100.00;50237.97;5085090;28;20291;-75
2022/09/15 02:34:02;;;;;;;5.53;2.87;;;;;;;-141.28;100.00;50267.41;5073677;28;20577;-75
2022/09/15 02:36:30;;;;;;;5.60;2.73;;;;;;;-141.28;100.00;50247.78;5073875;28;20725;-76
2022/09/15 02:39:02;;;;;;;6.30;3.10;;;;;;;-141.28;100.00;50239.94;5087215;28;20650;-78
2022/09/15 02:41:29;;;;;;;6.80;2.70;;;;;;;-141.28;100.00;50163.38;5087138;28;20203;-76
2022/09/15 02:43:56;;;;;;;7.70;2.80;;;;;;;-141.28;100.00;50202.63;5086562;28;20195;-76
2022/09/15 02:46:23;;;;;;;8.60;3.00;;;;;;;-141.28;100.00;50196.75;5085919;28;20226;-75
2022/09/15 02:48:53;;;;;;;6.53;3.83;;;;;;;-141.28;100.00;50261.50;5079853;28;20219;-76
2022/09/15 02:51:21;;;;;;;8.80;3.50;;;;;;;-141.28;100.00;50279.19;5083640;28;20270;-73
2022/09/15 02:53:48;;;;;;;10.23;3.63;;;;;;;-141.28;100.00;50304.69;5082475;28;20203;-78
2022/09/15 02:56:15;;;;;;;7.50;3.17;;;;;;;-141.28;100.00;50338.06;5091451;28;20284;-76
2022/09/15 02:58:43;;;;;;;8.30;3.47;;;;;;;-141.28;100.00;50328.25;5082899;28;20196;-76
2022/09/15 03:01:14;;;;;;;5.27;3.27;;;;;;;-141.28;100.00;50365.53;5092567;28;20196;-76
2022/09/15 03:03:42;;;;;;;5.77;2.97;;;;;;;-141.28;100.00;50351.81;5093848;28;20644;-77
2022/09/15 03:06:16;;;;;;;5.40;3.17;;;;;;;-141.28;100.00;50361.63;5088966;28;20573;-77
2022/09/15 03:08:46;;;;;;;5.17;3.37;;;;;;;-141.28;100.00;50351.81;5075353;28;20256;-77
2022/09/15 03:11:14;;;;;;;10.27;3.30;;;;;;;-141.28;100.00;50373.38;5073338;28;20258;-76
2022/09/15 03:13:41;;;;;;;11.47;3.43;;;;;;;-141.28;100.00;50338.06;5078880;28;20630;-76
2022/09/15 03:16:09;;;;;;;24.43;4.57;;;;;;;-141.28;100.00;50287.03;5092114;28;20220;-76
2022/09/15 03:18:36;;;;;;;9.97;3.80;;;;;;;-141.28;100.00;50318.44;5089741;28;20194;-77
2022/09/15 03:21:04;;;;;;;11.70;4.17;;;;;;;-141.28;100.00;50338.06;5086525;28;20712;-78
2022/09/15 03:23:32;;;;;;;13.83;4.13;;;;;;;-141.28;100.00;50334.13;5088093;28;20199;-77
2022/09/15 03:25:59;;;;;;;15.50;4.23;;;;;;;-141.28;100.00;50361.63;5093827;28;20203;-76
2022/09/15 03:28:27;;;;;;;16.00;4.30;;;;;;;-141.28;100.00;50334.13;5094864;28;20637;-77
2022/09/15 03:30:54;;;;;;;14.20;3.87;;;;;;;-141.28;100.00;50306.66;5092042;28;20197;-76
2022/09/15 03:33:21;;;;;;;7.67;3.80;;;;;;;-141.28;100.00;50310.59;5085141;28;20245;-75
2022/09/15 03:35:49;;;;;;;7.50;4.10;;;;;;;-141.28;100.00;50296.84;5095248;28;20577;-75
2022/09/15 03:38:17;;;;;;;12.10;4.80;;;;;;;-141.28;100.00;50316.47;5098160;28;20246;-77
2022/09/15 03:40:56;;;;;;;14.80;4.90;;;;;;;-141.28;100.00;50396.94;5080859;28;20606;-75
2022/09/15 03:43:24;;;;;;;16.43;4.77;;;;;;;-141.28;100.00;50377.31;5079057;28;20200;-76
2022/09/15 03:45:51;;;;;;;10.80;4.27;;;;;;;-141.28;100.00;50353.75;5101070;28;20310;-79
2022/09/15 03:48:20;;;;;;;14.23;4.33;;;;;;;-141.28;100.00;50320.41;5091718;28;20204;-75
2022/09/15 03:50:47;;;;;;;15.67;4.30;;;;;;;-141.28;100.00;50306.66;5088191;28;20242;-77
2022/09/15 03:53:14;;;;;;;13.77;5.17;;;;;;;-141.28;100.00;50312.53;5089317;28;20204;-75
2022/09/15 03:55:41;;;;;;;13.90;4.80;;;;;;;-141.28;100.00;50253.66;5102781;28;20226;-76
2022/09/15 03:58:10;;;;;;;12.50;4.90;;;;;;;-141.28;100.00;50243.84;5087471;28;20200;-74
2022/09/15 04:00:38;;;;;;;22.80;5.50;;;;;;;-141.28;100.00;50234.03;5100846;28;20198;-75
2022/09/15 04:03:06;;;;;;;39.00;7.40;;;;;;;-141.28;100.00;50218.34;5088212;28;20199;-75
2022/09/15 04:05:33;;;;;;;22.63;5.70;;;;;;;-141.28;100.00;50216.38;5107033;28;20231;-77
2022/09/15 04:08:01;;;;;;;32.43;6.20;;;;;;;-141.28;100.00;50181.03;5108718;28;20707;-76
2022/09/15 04:10:28;;;;;;;30.40;6.37;;;;;;;-141.28;100.00;50183.00;5108457;28;20191;-76
2022/09/15 04:12:55;;;;;;;31.47;5.77;;;;;;;-141.28;100.00;50241.88;5108630;28;20199;-76
2022/09/15 04:15:25;;;;;;;35.50;6.37;;;;;;;-141.28;100.00;50273.28;5108055;28;20241;-76
2022/09/15 04:17:54;;;;;;;19.50;5.60;;;;;;;-141.28;100.00;50324.31;5110212;28;20195;-75
2022/09/15 04:20:21;;;;;;;28.73;5.40;;;;;;;-141.28;100.00;50326.28;5091503;28;20206;-75
2022/09/15 04:22:49;;;;;;;14.23;4.47;;;;;;;-141.28;100.00;50359.66;5106301;28;20195;-75
2022/09/15 04:25:17;;;;;;;19.93;5.17;;;;;;;-141.28;100.00;50404.81;5103715;28;20611;-74
2022/09/15 04:27:44;;;;;;;51.07;8.17;;;;;;;-141.28;100.00;50377.31;5076512;28;20644;-76
2022/09/15 04:30:11;;;;;;;36.57;6.70;;;;;;;-141.28;100.00;50400.88;5082215;28;20278;-75
2022/09/15 04:32:40;;;;;;;26.57;6.13;;;;;;;-141.28;100.00;50400.88;5081936;28;20196;-76
2022/09/15 04:35:08;;;;;;;17.53;5.30;;;;;;;-141.28;100.00;50459.75;5084989;28;20224;-76
2022/09/15 04:37:38;;;;;;;24.73;5.63;;;;;;;-141.28;100.00;50510.78;5071587;28;20200;-75
2022/09/15 04:40:07;;;;;;;15.30;6.07;;;;;;;-141.28;100.00;50567.72;5074356;28;20232;-75
2022/09/15 04:42:35;;;;;;;20.03;5.43;;;;;;;-141.28;100.00;50559.88;5092828;28;20616;-77
2022/09/15 04:45:02;;;;;;;20.53;5.23;;;;;;;-141.28;100.00;50587.34;5095879;28;20195;-75
2022/09/15 04:47:29;;;;;;;32.60;6.90;;;;;;;-141.28;100.00;50471.53;5097180;28;20231;-77
2022/09/15 04:49:57;;;;;;;39.97;8.07;;;;;;;-141.28;100.00;50516.69;5084007;28;20191;-76
2022/09/15 04:52:24;;;;;;;36.13;7.33;;;;;;;-141.28;100.00;50514.72;5095821;28;20253;-75
2022/09/15 04:54:53;;;;;;;32.10;6.37;;;;;;;-141.28;100.00;50504.91;5115128;28;20210;-75
2022/09/15 04:57:23;;;;;;;28.23;7.03;;;;;;;-141.28;100.00;50455.84;5115354;28;20202;-76
2022/09/15 04:59:50;;;;;;;22.50;6.30;;;;;;;-141.28;100.00;50467.59;5089787;28;20199;-75
2022/09/15 05:02:17;;;;;;;25.60;6.30;;;;;;;-141.28;100.00;50495.09;5113882;28;20673;-74
2022/09/15 05:04:45;;;;;;;19.07;7.00;;;;;;;-141.28;100.00;50471.53;5103358;28;20246;-75
2022/09/15 05:07:14;;;;;;;23.43;6.53;;;;;;;-141.28;100.00;50475.47;5114426;28;20197;-75
2022/09/15 05:09:41;;;;;;;45.57;9.63;;;;;;;-141.28;100.00;50396.94;5107283;28;20244;-77
2022/09/15 05:12:08;;;;;;;21.00;6.80;;;;;;;-141.28;100.00;50379.28;5109755;28;20191;-75
2022/09/15 05:14:35;;;;;;;18.37;4.87;;;;;;;-141.28;100.00;50326.28;5106915;28;20192;-76
2022/09/15 05:17:02;;;;;;;21.77;5.23;;;;;;;-141.28;100.00;50196.75;5106965;28;20701;-75
2022/09/15 05:19:31;;;;;;;13.60;5.00;;;;;;;-141.28;100.00;50131.97;5102564;28;20191;-75
2022/09/15 05:21:59;;;;;;;18.00;5.57;;;;;;;-141.28;100.00;50073.09;5113487;28;20231;-76
2022/09/15 05:24:28;;;;;;;12.80;4.80;;;;;;;-141.28;100.00;50027.97;5105848;28;20282;-74
2022/09/15 05:26:55;;;;;;;13.17;4.50;;;;;;;-141.28;100.00;49965.16;5096271;28;20192;-74
2022/09/15 05:29:22;;;;;;;12.73;5.60;;;;;;;-141.28;100.00;49900.38;5103139;28;20291;-76
2022/09/15 05:31:51;;;;;;;18.73;5.80;;;;;;;-141.28;100.00;49888.63;5093125;28;20223;-75
2022/09/15 05:34:18;;;;;;;12.47;5.33;;;;;;;-141.28;100.00;49857.22;5104677;28;20203;-76
2022/09/15 05:36:45;;;;;;;21.43;5.77;;;;;;;-141.28;100.00;49772.81;5113024;28;20230;-75
2022/09/15 05:39:12;;;;;;;21.13;6.37;;;;;;;-141.28;100.00;49643.31;5114457;28;20255;-76
2022/09/15 05:41:41;;;;;;;31.27;6.63;;;;;;;-141.28;100.00;49513.78;5095599;28;20196;-76
2022/09/15 05:44:10;;;;;;;17.00;5.50;;;;;;;-141.28;100.00;49470.63;5094738;28;20257;-76
2022/09/15 05:46:38;;;;;;;17.90;4.93;;;;;;;-141.28;100.00;49415.69;5112421;28;20275;-75
2022/09/15 05:49:05;;;;;;;10.83;4.23;;;;;;;-141.28;100.00;49392.13;5114370;28;20202;-76
2022/09/15 05:51:32;;;;;;;10.73;4.50;;;;;;;-141.28;100.00;49427.44;5090852;28;20669;-76
2022/09/15 05:53:59;;;;;;;11.53;4.83;;;;;;;-141.28;100.00;49343.06;5073851;28;20208;-74
2022/09/15 05:56:26;;;;;;;21.57;5.70;;;;;;;-141.28;100.00;49358.78;5100184;28;20232;-75
2022/09/15 05:58:56;;;;;;;21.50;6.17;;;;;;;-141.28;100.00;49482.41;5087269;28;20195;-76
2022/09/15 06:01:24;;;;;;;25.03;6.17;;;;;;;-141.28;100.00;49588.34;5086977;28;20254;-75
2022/09/15 06:03:52;;;;;;;25.37;5.33;;;;;;;-141.28;100.00;49592.28;5112108;28;20256;-75
2022/09/15 06:06:20;;;;;;;23.83;5.27;;;;;;;-141.28;100.00;49492.22;5087608;28;20234;-75
2022/09/15 06:08:50;;;;;;;21.20;5.73;;;;;;;-141.28;100.00;49405.88;5112329;28;20684;-78
2022/09/15 06:11:19;;;;;;;21.07;5.97;;;;;;;-141.28;100.00;49360.75;5102111;28;20244;-76
2022/09/15 06:13:47;;;;;;;27.10;6.90;;;;;;;-141.28;100.00;49313.66;5074658;28;20215;-76
2022/09/15 06:16:18;;;;;;;30.00;9.33;;;;;;;-141.28;100.00;49278.31;5069479;28;20219;-75
2022/09/15 06:18:45;;;;;;;29.80;9.20;;;;;;;-141.28;100.00;49250.84;5081389;28;20286;-76
2022/09/15 06:21:17;;;;;;;21.57;6.30;;;;;;;-141.28;100.00;49233.19;5105927;28;20207;-76
2022/09/15 06:23:45;;;;;;;18.37;5.40;;;;;;;-141.28;100.00;49341.13;5078296;28;20208;-78
2022/09/15 06:26:15;;;;;;;20.63;5.27;;;;;;;-141.28;100.00;49933.75;5081964;28;20199;-75
2022/09/15 06:28:47;;;;;;;23.93;5.03;;;;;;;-141.28;100.00;49973.00;5104574;28;20664;-74
2022/09/15 06:31:19;;;;;;;19.37;5.23;;;;;;;-141.28;100.00;50130.00;5076623;28;20223;-76
2022/09/15 06:33:47;;;;;;;20.30;4.80;;;;;;;-141.28;100.00;50118.25;5074984;28;20203;-74
2022/09/15 06:36:16;;;;;;;11.83;4.43;;;;;;;-141.28;100.00;50094.69;5074100;28;20245;-76
2022/09/15 06:38:45;;;;;;;12.27;4.23;;;;;;;-141.28;100.00;50020.09;5073346;28;20200;-76
2022/09/15 06:41:13;;;;;;;10.33;4.10;;;;;;;-141.28;100.00;49980.84;5073258;28;20662;-74
2022/09/15 06:43:48;;;;;;;22.37;4.43;;;;;;;-141.28;100.00;50022.06;5092944;28;20286;-76
2022/09/15 06:46:19;;;;;;;10.60;4.40;;;;;;;-141.28;100.00;49984.78;5080338;28;20698;-75
2022/09/15 06:48:47;;;;;;;9.83;4.30;;;;;;;-141.28;100.00;49872.91;5086420;28;20219;-74
2022/09/15 06:51:16;;;;;;;13.23;4.70;;;;;;;-141.28;100.00;49833.66;5076850;28;20199;-75
2022/09/15 06:53:45;;;;;;;10.80;4.17;;;;;;;-141.28;100.00;49586.41;5091394;28;20249;-76
2022/09/15 06:56:13;;;;;;;17.00;4.90;;;;;;;-141.28;100.00;49841.50;5080303;28;20220;-76
2022/09/15 06:58:44;;;;;;;11.23;3.90;;;;;;;-141.28;100.00;49366.63;5113259;28;20654;-75
2022/09/15 07:01:12;;;;;;;8.50;3.37;;;;;;;-141.28;100.00;49223.38;5101078;28;20211;-76
2022/09/15 07:03:43;;;;;;;7.23;3.50;;;;;;;-141.28;100.00;49227.31;5088552;28;20241;-76
2022/09/15 07:06:12;;;;;;;10.33;4.53;;;;;;;-141.28;100.00;49311.69;5072630;28;20246;-74
2022/09/15 07:08:39;;;;;;;6.37;3.13;;;;;;;-141.28;100.00;49284.22;5075604;28;20204;-75
2022/09/15 07:11:07;;;;;;;8.00;3.20;;;;;;;-141.28;100.00;49070.34;5092896;28;20287;-73
2022/09/15 07:13:35;;;;;;;6.80;3.03;;;;;;;-141.28;100.00;49015.41;5082383;28;20624;-78
2022/09/15 07:16:05;;;;;;;5.67;3.40;;;;;;;-141.28;100.00;49044.84;5087798;28;20219;-75
2022/09/15 07:18:32;;;;;;;11.47;3.13;;;;;;;-141.28;100.00;49019.31;5085976;28;20207;-75
2022/09/15 07:21:04;;;;;;;10.33;3.50;;;;;;;-141.28;100.00;49035.03;5094719;28;20189;-74
2022/09/15 07:23:32;;;;;;;10.97;3.43;;;;;;;-141.28;100.00;49027.19;5083956;28;20196;-74
2022/09/15 07:26:07;;;;;;;11.33;3.87;;;;;;;-141.28;100.00;49027.19;5072189;28;20554;-74
2022/09/15 07:28:35;;;;;;;6.80;3.07;;;;;;;-141.28;100.00;49038.94;5083198;28;20256;-75
2022/09/15 07:31:03;;;;;;;10.90;4.03;;;;;;;-141.28;100.00;49454.94;5095472;28;20195;-76
2022/09/15 07:33:31;;;;;;;11.93;4.13;;;;;;;-141.28;100.00;49062.50;5090764;28;20202;-75
2022/09/15 07:36:02;;;;;;;12.53;4.23;;;;;;;-141.28;100.00;49027.19;5067496;28;20262;-78
2022/09/15 07:38:29;;;;;;;9.37;4.70;;;;;;;-141.28;100.00;49056.59;5072209;28;20200;-76
2022/09/15 07:41:02;;;;;;;16.47;5.53;;;;;;;-141.28;100.00;48970.28;5072631;28;20205;-74
2022/09/15 07:43:31;;;;;;;13.80;5.67;;;;;;;-141.28;100.00;49011.47;5072172;28;20208;-75
2022/09/15 07:45:58;;;;;;;12.40;4.80;;;;;;;-141.28;100.00;48970.28;5092105;28;20215;-74
2022/09/15 07:48:25;;;;;;;10.87;4.13;;;;;;;-141.28;100.00;48980.09;5092867;28;20235;-75
2022/09/15 07:50:53;;;;;;;10.40;4.67;;;;;;;-141.28;100.00;49001.66;5092023;28;20228;-74
2022/09/15 07:53:22;;;;;;;20.07;4.90;;;;;;;-141.28;100.00;49027.19;5084881;28;20207;-76
2022/09/15 07:55:52;;;;;;;13.17;5.00;;;;;;;-141.28;100.00;49035.03;5071707;28;20205;-75
2022/09/15 07:58:19;;;;;;;10.13;4.40;;;;;;;-141.28;100.00;49507.91;5080231;28;20204;-77
2022/09/15 08:00:47;;;;;;;7.43;4.23;;;;;;;-141.28;100.00;49556.97;5078662;28;20200;-75
2022/09/15 08:03:14;;;;;;;8.57;4.17;;;;;;;-141.28;100.00;48991.84;5092186;28;20554;-76
2022/09/15 08:05:41;;;;;;;6.47;3.63;;;;;;;-141.28;100.00;49001.66;5092240;28;20226;-75
2022/09/15 08:08:08;;;;;;;14.17;4.00;;;;;;;-141.28;100.00;48987.94;5083465;28;20618;-75
2022/09/15 08:10:38;;;;;;;12.40;4.53;;;;;;;-141.28;100.00;48960.47;5074258;28;20211;-77
2022/09/15 08:13:05;;;;;;;10.53;4.60;;;;;;;-141.28;100.00;49362.69;5091355;28;20231;-74
2022/09/15 08:15:36;;;;;;;13.80;4.87;;;;;;;-141.28;100.00;48960.47;5075182;28;20208;-75
2022/09/15 08:18:03;;;;;;;11.43;4.90;;;;;;;-141.28;100.00;48942.81;5081398;28;20312;-75
2022/09/15 08:20:31;;;;;;;16.93;4.17;;;;;;;-141.28;100.00;48870.22;5075239;28;20200;-75
2022/09/15 08:22:58;;;;;;;8.97;4.03;;;;;;;-141.28;100.00;48929.06;5081045;28;20282;-77
2022/09/15 08:25:27;;;;;;;17.50;4.30;;;;;;;-141.28;100.00;48934.97;5077575;28;20211;-75
2022/09/15 08:27:58;;;;;;;12.00;4.27;;;;;;;-141.28;100.00;48936.91;5091072;28;20196;-75
2022/09/15 08:30:25;;;;;;;16.23;4.37;;;;;;;-141.28;100.00;48870.22;5094985;28;20195;-75
2022/09/15 08:32:53;;;;;;;12.27;4.70;;;;;;;-141.28;100.00;48889.84;5102052;28;20195;-74
2022/09/15 08:35:20;;;;;;;8.20;4.07;;;;;;;-141.28;100.00;48864.34;5109309;28;20218;-76
2022/09/15 08:37:47;;;;;;;12.60;4.37;;;;;;;-141.28;100.00;48815.28;5091705;28;20231;-76
2022/09/15 08:40:17;;;;;;;13.90;5.10;;;;;;;-141.28;100.00;48872.19;5097505;28;20192;-74
2022/09/15 08:42:48;;;;;;;8.47;4.30;;;;;;;-141.28;100.00;48854.53;5097825;28;20199;-76
2022/09/15 08:45:22;;;;;;;14.83;4.47;;;;;;;-141.28;100.00;48862.38;5091339;28;20222;-75
2022/09/15 08:47:55;;;;;;;18.50;5.30;;;;;;;-141.28;100.00;48852.56;5076257;28;20203;-76
2022/09/15 08:50:28;;;;;;;12.47;4.47;;;;;;;-141.28;100.00;48844.72;5072013;28;20295;-77
2022/09/15 08:53:00;;;;;;;9.70;4.73;;;;;;;-141.28;100.00;48850.59;5091772;28;20261;-77
2022/09/15 08:55:37;;;;;;;18.83;6.23;;;;;;;-141.28;100.00;48850.59;5089801;28;20206;-77
2022/09/15 08:58:05;;;;;;;20.90;6.90;;;;;;;-141.28;100.00;48836.88;5071445;28;20226;-75
2022/09/15 09:00:38;;;;;;;14.40;4.97;;;;;;;-141.28;100.00;48838.81;5084827;28;20560;-75
2022/09/15 09:03:32;;;;;;;11.87;4.20;;;;;;;-141.28;100.00;48807.44;5078718;28;20194;-73
2022/09/15 09:06:06;;;;;;;9.50;4.07;;;;;;;-141.28;100.00;48823.13;5103653;28;20289;-75
2022/09/15 09:09:02;;;;;;;14.07;3.90;;;;;;;-141.28;100.00;48830.97;5091633;28;20633;-76
2022/09/15 09:11:41;;;;;;;9.53;4.43;;;;;;;-141.28;100.00;48848.63;5087402;28;20623;-75
2022/09/15 09:14:19;;;;;;;14.93;5.53;;;;;;;-141.28;100.00;48846.69;5110127;28;20191;-75
2022/09/15 09:17:15;;;;;;;14.10;5.30;;;;;;;-141.28;100.00;48842.75;5110252;28;20215;-75
2022/09/15 09:20:10;;;;;;;9.07;4.67;;;;;;;-141.28;100.00;48823.13;5085200;28;20204;-75
2022/09/15 09:22:41;;;;;;;10.77;4.10;;;;;;;-141.28;100.00;48783.91;5074058;28;20653;-76
2022/09/15 09:25:14;;;;;;;9.40;3.63;;;;;;;-141.28;100.00;48799.59;5082270;28;20211;-75
2022/09/15 09:27:42;;;;;;;13.43;4.33;;;;;;;-141.28;100.00;48801.56;5104202;28;20219;-75
2022/09/15 09:30:16;;;;;;;14.23;4.07;;;;;;;-141.28;100.00;48791.75;5090754;28;20580;-74
2022/09/15 09:32:49;;;;;;;16.93;4.13;;;;;;;-141.28;100.00;48791.75;5094989;28;20202;-76
2022/09/15 09:35:26;;;;;;;10.77;3.83;;;;;;;-141.28;100.00;48801.56;5095085;28;20202;-75
2022/09/15 09:37:55;;;;;;;12.60;3.97;;;;;;;-141.28;100.00;48789.78;5091832;28;20711;-76
2022/09/15 09:40:24;;;;;;;16.67;4.53;;;;;;;-141.28;100.00;48779.97;5079523;28;20288;-75
2022/09/15 09:42:52;;;;;;;7.47;3.90;;;;;;;-141.28;100.00;48785.84;5083629;28;20261;-75
2022/09/15 09:45:19;;;;;;;9.23;3.83;;;;;;;-141.28;100.00;48772.13;5078674;28;20223;-76
2022/09/15 09:47:48;;;;;;;10.57;3.87;;;;;;;-141.28;100.00;48768.19;5074654;28;20199;-77
2022/09/15 09:50:34;;;;;;;11.17;3.93;;;;;;;-141.28;95.92;48756.44;5060730;28;20203;-76
2022/09/15 09:53:17;;;;;;;11.50;4.10;;;;;;;-141.28;100.00;49180.22;5090337;28;20292;-76
2022/09/15 09:55:45;;;;;;;12.70;3.80;;;;;;;-141.28;92.21;48748.56;5074558;28;20619;-75
2022/09/15 09:58:17;;;;;;;14.77;4.97;;;;;;;-141.28;89.24;48728.97;5085294;28;20262;-76
2022/09/15 10:00:44;;;;;;;16.10;4.30;;;;;;;-141.28;85.58;48717.19;5088810;28;20192;-75
2022/09/15 10:03:17;;;;;;;9.70;3.83;;;;;;;-141.28;82.22;48713.25;5087850;28;20208;-75
2022/09/15 10:05:45;;;;;;;12.00;3.53;;;;;;;-141.28;80.45;48695.59;5073670;28;20698;-75
2022/09/15 10:08:18;;;;;;;16.33;4.30;;;;;;;-141.28;77.05;48691.69;5074088;28;20271;-74
2022/09/15 10:10:52;;;;;;;9.03;3.53;;;;;;;-141.28;76.39;48670.09;5075251;28;20229;-76
2022/09/15 10:13:19;;;;;;;12.67;4.30;;;;;;;-141.28;78.35;48681.88;5093971;28;20697;-75
2022/09/15 10:15:53;;;;;;;13.67;3.83;;;;;;;-141.28;77.49;48654.41;5079142;28;20201;-75
2022/09/15 10:18:33;;;;;;;26.20;5.53;;;;;;;-141.28;77.23;48670.09;5074147;28;20271;-76
2022/09/15 10:21:00;;;;;;;12.77;4.13;;;;;;;-141.28;75.21;48611.25;5074455;28;20201;-74
2022/09/15 10:23:29;;;;;;;11.87;4.00;;;;;;;-141.28;81.39;48650.50;5073934;28;20200;-76
2022/09/15 10:26:21;;;;;;;18.90;4.40;;;;;;;-141.28;68.88;48656.38;5075299;28;20199;-76
2022/09/15 10:29:16;;;;;;;11.67;3.93;;;;;;;-141.28;67.61;48642.63;5091030;28;20631;-76
2022/09/15 10:31:44;;;;;;;15.83;3.97;;;;;;;-141.28;67.07;48619.09;5082192;28;20268;-75
2022/09/15 10:34:26;;;;;;;13.77;3.97;;;;;;;-141.28;67.25;48644.59;5078108;28;20825;-75
2022/09/15 10:36:55;;;;;;;11.37;3.77;;;;;;;-141.28;68.16;48677.94;5094876;28;20219;-75
2022/09/15 10:39:34;;;;;;;13.07;3.90;;;;;;;-141.28;68.41;48642.63;5095518;28;20239;-76
2022/09/15 10:42:20;;;;;;;10.90;3.80;;;;;;;-141.28;64.34;48642.63;5092329;28;20202;-76
2022/09/15 10:44:57;;;;;;;10.17;3.83;;;;;;;-141.28;64.57;48638.72;5078575;28;20211;-75
2022/09/15 10:47:38;;;;;;;11.20;3.80;;;;;;;-141.28;64.03;48609.28;5074877;28;20238;-76
2022/09/15 10:50:16;;;;;;;10.50;3.93;;;;;;;-141.28;62.59;48609.28;5077778;28;20577;-76
2022/09/15 10:53:05;;;;;;;14.27;3.93;;;;;;;-141.28;59.66;48597.53;5088971;28;20284;-76
2022/09/15 10:55:44;;;;;;;14.10;3.60;;;;;;;-141.28;60.95;48607.31;5105372;28;20210;-76
2022/09/15 10:58:44;;;;;;;9.27;4.53;;;;;;;-141.28;63.24;48615.19;5105627;28;20230;-76
2022/09/15 11:01:32;;;;;;;11.20;4.30;;;;;;;-141.28;62.63;48621.06;5095779;28;20241;-77
2022/09/15 11:04:11;;;;;;;10.00;3.73;;;;;;;-141.28;65.27;48634.78;5112210;28;20202;-76
2022/09/15 11:06:47;;;;;;;11.73;3.60;;;;;;;-141.28;60.43;48628.91;5113134;28;20636;-76
2022/09/15 11:09:20;;;;;;;12.83;3.87;;;;;;;-141.28;63.36;48623.03;5103630;28;20207;-75
2022/09/15 11:12:06;;;;;;;10.67;3.70;;;;;;;-141.28;60.35;48615.19;5098859;28;20198;-76
2022/09/15 11:14:44;;;;;;;7.97;3.47;;;;;;;-141.28;59.01;48624.97;5090047;28;20198;-74
2022/09/15 11:17:26;;;;;;;15.73;4.10;;;;;;;-141.28;60.77;48650.50;5083507;28;20222;-75
2022/09/15 11:20:20;;;;;;;16.27;3.60;;;;;;;-141.28;60.67;48654.41;5094012;28;20669;-75
2022/09/15 11:22:54;;;;;;;9.93;3.67;;;;;;;-141.28;59.20;48662.25;5059824;28;20232;-77
2022/09/15 11:25:24;;;;;;;9.87;3.60;;;;;;;-141.28;61.95;48609.28;5074559;28;20202;-76
2022/09/15 11:27:56;;;;;;;14.00;5.33;;;;;;;-141.28;60.82;48648.53;5073890;28;20195;-75